createdAt,value
2022-08-12T00:00:10.823Z,19.76
2022-08-12T00:02:57.020Z,19.76
2022-08-12T00:06:04.360Z,19.78
2022-08-12T00:08:49.472Z,19.70
2022-08-12T00:11:35.495Z,19.71
2022-08-12T00:14:21.078Z,19.67
2022-08-12T00:17:06.554Z,19.58
2022-08-12T00:19:52.302Z,19.48
2022-08-12T00:22:38.127Z,19.41
2022-08-12T00:26:05.597Z,19.35
2022-08-12T00:28:29.173Z,19.22
2022-08-12T00:31:14.777Z,19.13
2022-08-12T00:34:00.571Z,19.13
2022-08-12T00:36:57.400Z,19.11
2022-08-12T00:40:02.005Z,19.09
2022-08-12T00:42:50.597Z,19.07
2022-08-12T00:45:35.916Z,19.00
2022-08-12T00:48:21.003Z,18.92
2022-08-12T00:51:08.106Z,18.86
2022-08-12T00:53:53.481Z,18.81
2022-08-12T00:56:39.548Z,18.76
2022-08-12T00:59:24.801Z,18.74
2022-08-12T01:02:13.010Z,18.71
2022-08-12T01:04:59.335Z,18.67
2022-08-12T01:07:46.174Z,18.63
2022-08-12T01:10:36.269Z,18.58
2022-08-12T01:13:22.618Z,18.50
2022-08-12T01:16:09.306Z,18.41
2022-08-12T01:18:57.371Z,18.41
2022-08-12T01:22:03.845Z,18.42
2022-08-12T01:25:05.622Z,18.32
2022-08-12T01:27:52.087Z,18.28
2022-08-12T01:30:40.903Z,18.23
2022-08-12T01:33:30.754Z,18.23
2022-08-12T01:36:18.934Z,18.22
2022-08-12T01:39:04.461Z,18.19
2022-08-12T01:41:57.256Z,18.18
2022-08-12T01:44:43.991Z,18.17
2022-08-12T01:47:48.508Z,18.06
2022-08-12T01:51:01.313Z,18.00
2022-08-12T01:54:01.780Z,17.86
2022-08-12T01:56:58.992Z,17.87
2022-08-12T02:00:12.276Z,17.84
2022-08-12T02:03:12.391Z,17.79
2022-08-12T02:06:13.561Z,17.80
2022-08-12T02:09:01.255Z,17.83
2022-08-12T02:11:56.801Z,17.80
2022-08-12T02:15:10.723Z,17.77
2022-08-12T02:18:12.415Z,17.72
2022-08-12T02:21:27.326Z,17.67
2022-08-12T02:24:19.844Z,17.63
2022-08-12T02:27:06.915Z,17.55
2022-08-12T02:29:51.982Z,17.48
2022-08-12T02:32:42.343Z,17.43
2022-08-12T02:35:33.257Z,17.41
2022-08-12T02:38:20.610Z,17.34
2022-08-12T02:41:07.588Z,17.28
2022-08-12T02:43:58.582Z,17.32
2022-08-12T02:46:48.417Z,17.35
2022-08-12T02:49:37.857Z,17.33
2022-08-12T02:52:23.860Z,17.33
2022-08-12T02:55:28.439Z,17.32
2022-08-12T02:58:20.840Z,17.35
2022-08-12T03:01:24.277Z,17.31
2022-08-12T03:04:20.176Z,17.30
2022-08-12T03:07:20.102Z,17.27
2022-08-12T03:10:14.611Z,17.20
2022-08-12T03:13:02.887Z,17.08
2022-08-12T03:15:48.873Z,17.15
2022-08-12T03:18:34.185Z,17.15
2022-08-12T03:21:55.462Z,17.13
2022-08-12T03:24:26.472Z,17.08
2022-08-12T03:27:13.428Z,17.06
2022-08-12T03:29:59.140Z,17.03
2022-08-12T03:32:48.965Z,16.95
2022-08-12T03:35:40.605Z,16.84
2022-08-12T03:38:29.456Z,16.72
2022-08-12T03:41:19.048Z,16.65
2022-08-12T03:44:15.748Z,16.57
2022-08-12T03:47:33.430Z,16.56
2022-08-12T03:50:19.670Z,16.57
2022-08-12T03:53:07.585Z,16.65
2022-08-12T03:55:53.582Z,16.64
2022-08-12T03:58:39.549Z,16.64
2022-08-12T04:01:25.722Z,16.64
2022-08-12T04:04:13.364Z,16.58
2022-08-12T04:06:58.590Z,16.57
2022-08-12T04:09:46.107Z,16.51
2022-08-12T04:12:32.870Z,16.51
2022-08-12T04:15:22.382Z,16.55
2022-08-12T04:18:08.116Z,16.58
2022-08-12T04:20:54.979Z,16.61
2022-08-12T04:23:43.918Z,16.63
2022-08-12T04:26:33.234Z,16.64
2022-08-12T04:29:23.248Z,16.65
2022-08-12T04:32:28.549Z,16.62
2022-08-12T04:35:14.023Z,16.57
2022-08-12T04:38:01.032Z,16.57
2022-08-12T04:40:46.997Z,16.49
2022-08-12T04:44:01.070Z,16.51
2022-08-12T04:46:37.582Z,16.57
2022-08-12T04:49:23.801Z,16.62
2022-08-12T04:52:09.669Z,16.67
2022-08-12T04:54:55.218Z,16.70
2022-08-12T04:57:40.606Z,16.76
2022-08-12T05:00:26.155Z,16.76
2022-08-12T05:03:11.154Z,16.79
2022-08-12T05:05:56.652Z,16.82
2022-08-12T05:08:41.897Z,16.86
2022-08-12T05:11:27.586Z,16.91
2022-08-12T05:14:13.443Z,16.99
2022-08-12T05:16:59.948Z,17.06
2022-08-12T05:19:45.461Z,17.09
2022-08-12T05:22:31.356Z,17.17
2022-08-12T05:25:22.236Z,17.25
2022-08-12T05:28:07.475Z,17.35
2022-08-12T05:30:53.413Z,17.42
2022-08-12T05:33:38.755Z,17.57
2022-08-12T05:36:24.132Z,17.67
2022-08-12T05:39:09.168Z,17.78
2022-08-12T05:41:54.610Z,17.90
2022-08-12T05:44:39.741Z,18.01
2022-08-12T05:47:38.493Z,18.09
2022-08-12T05:50:30.464Z,18.21
2022-08-12T05:53:15.754Z,18.32
2022-08-12T05:56:01.313Z,18.44
2022-08-12T05:58:48.336Z,18.55
2022-08-12T06:02:10.938Z,18.63
2022-08-12T06:04:39.294Z,18.71
2022-08-12T06:08:00.630Z,18.79
2022-08-12T06:10:32.506Z,18.97
2022-08-12T06:13:28.588Z,19.09
2022-08-12T06:16:24.580Z,19.20
2022-08-12T06:19:10.204Z,19.34
2022-08-12T06:21:55.514Z,19.46
2022-08-12T06:24:40.845Z,19.60
2022-08-12T06:27:26.307Z,19.77
2022-08-12T06:30:16.301Z,19.89
2022-08-12T06:33:22.528Z,20.03
2022-08-12T06:36:11.401Z,20.22
2022-08-12T06:38:57.093Z,20.34
2022-08-12T06:42:05.081Z,20.44
2022-08-12T06:44:48.444Z,20.60
2022-08-12T06:47:44.286Z,20.76
2022-08-12T06:50:29.700Z,20.91
2022-08-12T06:53:16.384Z,21.04
2022-08-12T06:56:01.796Z,21.28
2022-08-12T06:58:47.163Z,21.48
2022-08-12T07:01:32.440Z,21.69
2022-08-12T07:04:35.851Z,21.89
2022-08-12T07:07:22.502Z,22.10
2022-08-12T07:13:11.009Z,22.54
2022-08-12T07:15:56.155Z,22.81
2022-08-12T07:18:43.022Z,23.09
2022-08-12T07:22:00.176Z,23.38
2022-08-12T07:24:33.539Z,23.79
2022-08-12T07:27:18.824Z,24.10
2022-08-12T07:30:05.409Z,24.56
2022-08-12T07:32:50.884Z,24.96
2022-08-12T07:35:38.753Z,25.28
2022-08-12T07:38:31.217Z,25.57
2022-08-12T07:41:18.437Z,25.96
2022-08-12T07:44:07.113Z,26.11
2022-08-12T07:46:52.471Z,26.48
2022-08-12T07:50:05.720Z,26.79
2022-08-12T07:52:45.425Z,26.79
2022-08-12T07:55:30.597Z,27.41
2022-08-12T07:58:15.527Z,27.83
2022-08-12T08:01:01.058Z,28.39
2022-08-12T08:03:52.011Z,28.88
2022-08-12T08:06:39.416Z,28.90
2022-08-12T08:09:24.787Z,28.33
2022-08-12T08:12:09.807Z,29.06
2022-08-12T08:15:04.847Z,29.88
2022-08-12T08:18:03.788Z,30.72
2022-08-12T08:20:48.977Z,31.35
2022-08-12T08:23:37.152Z,30.81
2022-08-12T08:26:22.242Z,31.19
2022-08-12T08:29:07.372Z,31.71
2022-08-12T08:31:53.871Z,32.24
2022-08-12T08:34:54.834Z,32.35
2022-08-12T08:37:40.157Z,33.11
2022-08-12T08:40:26.629Z,33.31
2022-08-12T08:43:11.779Z,33.11
2022-08-12T08:45:57.751Z,33.24
2022-08-12T08:48:42.958Z,31.92
2022-08-12T08:51:28.385Z,32.42
2022-08-12T08:54:13.830Z,33.24
2022-08-12T08:57:00.442Z,33.97
2022-08-12T08:59:45.462Z,33.58
2022-08-12T09:02:37.376Z,33.84
2022-08-12T09:05:25.824Z,34.73
2022-08-12T09:08:15.428Z,35.36
2022-08-12T09:11:07.708Z,34.81
2022-08-12T09:14:11.311Z,34.90
2022-08-12T09:16:58.182Z,35.76
2022-08-12T09:19:43.452Z,35.88
2022-08-12T09:22:43.229Z,36.78
2022-08-12T09:25:34.019Z,37.05
2022-08-12T09:32:02.913Z,36.85
2022-08-12T09:34:37.801Z,35.55
2022-08-12T09:37:28.384Z,33.55
2022-08-12T09:40:57.167Z,34.10
2022-08-12T09:43:53.437Z,34.72
2022-08-12T09:46:39.272Z,35.55
2022-08-12T09:49:25.301Z,36.16
2022-08-12T09:52:10.457Z,36.29
2022-08-12T09:54:59.803Z,34.99
2022-08-12T09:58:47.064Z,34.65
2022-08-12T10:00:53.837Z,34.26
2022-08-12T10:03:55.674Z,33.58
2022-08-12T10:06:53.999Z,34.02
2022-08-12T10:09:58.529Z,33.55
2022-08-12T10:13:07.081Z,32.70
2022-08-12T10:16:02.123Z,31.80
2022-08-12T10:18:55.882Z,31.95
2022-08-12T10:21:41.669Z,32.05
2022-08-12T10:24:27.396Z,32.47
2022-08-12T10:27:14.377Z,33.19
2022-08-12T10:30:37.025Z,33.71
2022-08-12T10:33:19.045Z,33.77
2022-08-12T10:36:11.637Z,33.51
2022-08-12T10:38:56.658Z,32.63
2022-08-12T10:41:57.855Z,30.60
2022-08-12T10:44:44.158Z,29.67
2022-08-12T10:48:14.977Z,29.04
2022-08-12T10:51:01.857Z,29.37
2022-08-12T10:53:46.634Z,29.78
2022-08-12T10:56:34.741Z,30.22
2022-08-12T10:59:20.429Z,30.46
2022-08-12T11:04:25.040Z,30.41
2022-08-12T11:07:05.540Z,30.09
2022-08-12T11:08:43.517Z,30.00
2022-08-12T11:12:35.967Z,29.99
2022-08-12T11:14:49.055Z,29.96
2022-08-12T11:17:52.655Z,30.00
2022-08-12T11:20:39.703Z,29.99
2022-08-12T11:23:37.004Z,29.96
2022-08-12T11:26:22.605Z,30.03
2022-08-12T11:29:22.663Z,30.08
2022-08-12T11:32:08.267Z,30.11
2022-08-12T11:34:55.301Z,30.05
2022-08-12T11:37:59.047Z,30.13
2022-08-12T11:40:45.096Z,30.07
2022-08-12T11:43:30.850Z,29.55
2022-08-12T11:46:18.559Z,29.56
2022-08-12T11:49:05.249Z,29.65
2022-08-12T11:51:57.571Z,29.65
2022-08-12T11:54:43.181Z,30.02
2022-08-12T11:58:07.028Z,30.13
2022-08-12T12:04:01.208Z,31.64
2022-08-12T12:06:52.968Z,32.91
2022-08-12T12:09:53.028Z,33.93
2022-08-12T12:12:38.674Z,34.98
2022-08-12T12:15:40.786Z,35.14
2022-08-12T12:18:30.871Z,36.29
2022-08-12T12:21:16.305Z,37.16
2022-08-12T12:24:01.739Z,37.71
2022-08-12T12:26:47.143Z,38.31
2022-08-12T12:30:19.886Z,38.28
2022-08-12T12:32:53.327Z,38.63
2022-08-12T12:36:18.211Z,39.01
2022-08-12T12:38:45.548Z,39.55
2022-08-12T12:42:44.079Z,40.02
2022-08-12T12:44:38.657Z,40.75
2022-08-12T12:47:29.105Z,39.95
2022-08-12T12:50:35.619Z,40.79
2022-08-12T12:54:06.067Z,41.40
2022-08-12T12:56:33.869Z,41.19
2022-08-12T12:59:54.528Z,40.51
2022-08-12T13:02:31.660Z,40.79
2022-08-12T13:05:17.688Z,41.97
2022-08-12T13:08:35.628Z,41.86
2022-08-12T13:11:21.544Z,42.65
2022-08-12T13:14:28.671Z,42.14
2022-08-12T13:17:17.852Z,41.95
2022-08-12T13:20:05.578Z,41.84
2022-08-12T13:22:51.048Z,42.72
2022-08-12T13:25:39.029Z,42.22
2022-08-12T13:28:28.415Z,40.96
2022-08-12T13:31:14.354Z,39.55
2022-08-12T13:34:33.387Z,38.84
2022-08-12T13:37:09.765Z,37.61
2022-08-12T13:39:55.136Z,37.34
2022-08-12T13:42:40.591Z,36.91
2022-08-12T13:45:29.080Z,36.47
2022-08-12T13:48:14.478Z,35.93
2022-08-12T13:51:04.920Z,35.85
2022-08-12T13:53:58.344Z,35.30
2022-08-12T13:56:50.200Z,34.60
2022-08-12T13:59:48.046Z,34.24
2022-08-12T14:02:33.925Z,33.73
2022-08-12T14:05:31.017Z,33.60
2022-08-12T14:08:24.091Z,33.41
2022-08-12T14:11:12.425Z,33.25
2022-08-12T14:14:03.575Z,32.88
2022-08-12T14:16:56.319Z,33.09
2022-08-12T14:19:51.301Z,33.01
2022-08-12T14:22:39.717Z,32.56
2022-08-12T14:25:35.705Z,32.34
2022-08-12T14:28:21.840Z,32.31
2022-08-12T14:31:16.575Z,32.26
2022-08-12T14:34:05.139Z,32.22
2022-08-12T14:36:50.459Z,32.17
2022-08-12T14:39:35.354Z,32.02
2022-08-12T14:42:26.055Z,31.87
2022-08-12T14:45:12.637Z,31.80
2022-08-12T14:47:58.631Z,31.79
2022-08-12T14:51:02.736Z,31.86
2022-08-12T14:54:52.883Z,31.92
2022-08-12T14:57:19.826Z,31.88
2022-08-12T15:00:02.750Z,31.77
2022-08-12T15:02:48.189Z,31.71
2022-08-12T15:06:05.968Z,31.57
2022-08-12T15:08:42.404Z,31.61
2022-08-12T15:11:27.991Z,31.49
2022-08-12T15:14:35.286Z,31.30
2022-08-12T15:17:38.379Z,31.35
2022-08-12T15:20:33.221Z,31.32
2022-08-12T15:23:32.962Z,31.08
2022-08-12T15:26:35.705Z,31.09
2022-08-12T15:29:23.190Z,30.97
2022-08-12T15:32:15.811Z,30.90
2022-08-12T15:35:01.332Z,30.65
2022-08-12T15:38:10.016Z,30.55
2022-08-12T15:40:56.823Z,30.72
2022-08-12T15:44:15.837Z,30.72
2022-08-12T15:46:49.477Z,30.47
2022-08-12T15:49:54.402Z,30.62
2022-08-12T15:52:40.053Z,30.67
2022-08-12T15:55:26.368Z,30.49
2022-08-12T15:58:18.841Z,30.53
2022-08-12T16:01:12.287Z,30.38
2022-08-12T16:03:59.335Z,30.36
2022-08-12T16:07:05.486Z,30.23
2022-08-12T16:10:05.168Z,30.32
2022-08-12T16:12:55.595Z,30.42
2022-08-12T16:15:42.338Z,30.36
2022-08-12T16:18:37.154Z,30.32
2022-08-12T16:21:52.243Z,30.33
2022-08-12T16:24:27.246Z,30.13
2022-08-12T16:27:12.061Z,30.12
2022-08-12T16:29:57.661Z,30.07
2022-08-12T16:32:46.442Z,30.12
2022-08-12T16:35:40.545Z,30.09
2022-08-12T16:38:29.030Z,30.07
2022-08-12T16:41:14.130Z,30.07
2022-08-12T16:43:59.918Z,30.00
2022-08-12T16:46:57.881Z,29.96
2022-08-12T16:49:43.768Z,29.86
2022-08-12T16:52:29.457Z,29.91
2022-08-12T16:55:15.212Z,29.89
2022-08-12T16:58:00.992Z,29.91
2022-08-12T17:00:48.305Z,29.90
2022-08-12T17:03:36.577Z,29.75
2022-08-12T17:06:22.684Z,29.71
2022-08-12T17:09:17.114Z,29.74
2022-08-12T17:12:04.319Z,29.80
2022-08-12T17:14:53.006Z,29.78
2022-08-12T17:17:39.822Z,29.73
2022-08-12T17:20:33.995Z,29.69
2022-08-12T17:23:24.099Z,29.69
2022-08-12T17:26:09.657Z,29.64
2022-08-12T17:28:58.613Z,29.73
2022-08-12T17:32:01.692Z,29.70
2022-08-12T17:34:49.421Z,29.54
2022-08-12T17:37:35.384Z,29.53
2022-08-12T17:40:34.781Z,29.57
2022-08-12T17:43:51.894Z,29.47
2022-08-12T17:46:33.408Z,29.44
2022-08-12T17:50:01.462Z,29.29
2022-08-12T17:52:23.824Z,29.36
2022-08-12T17:55:43.483Z,29.12
2022-08-12T17:58:35.809Z,29.04
2022-08-12T18:01:24.173Z,29.04
2022-08-12T18:04:22.170Z,28.95
2022-08-12T18:07:13.529Z,28.82
2022-08-12T18:10:00.030Z,28.82
2022-08-12T18:12:50.932Z,28.77
2022-08-12T18:16:03.862Z,28.67
2022-08-12T18:18:44.977Z,28.51
2022-08-12T18:22:01.067Z,28.56
2022-08-12T18:24:39.347Z,28.42
2022-08-12T18:27:30.146Z,28.41
2022-08-12T18:30:29.977Z,28.14
2022-08-12T18:33:15.377Z,28.18
2022-08-12T18:36:00.807Z,28.07
2022-08-12T18:38:51.312Z,28.02
2022-08-12T18:41:38.949Z,27.94
2022-08-12T18:44:25.985Z,27.99
2022-08-12T18:47:13.515Z,27.98
2022-08-12T18:49:59.054Z,27.84
2022-08-12T18:52:48.428Z,27.81
2022-08-12T18:55:37.448Z,27.77
2022-08-12T18:58:24.685Z,27.70
2022-08-12T19:02:18.939Z,27.69
2022-08-12T19:04:22.413Z,27.47
2022-08-12T19:07:20.726Z,27.29
2022-08-12T19:10:08.049Z,27.19
2022-08-12T19:12:57.180Z,27.10
2022-08-12T19:15:43.453Z,26.98
2022-08-12T19:18:31.395Z,26.87
2022-08-12T19:21:20.440Z,26.68
2022-08-12T19:24:06.008Z,26.55
2022-08-12T19:26:57.353Z,26.38
2022-08-12T19:29:44.280Z,26.21
2022-08-12T19:32:31.491Z,26.07
2022-08-12T19:38:21.797Z,25.72
2022-08-12T19:41:14.546Z,25.63
2022-08-12T19:44:18.640Z,25.52
2022-08-12T19:47:06.312Z,25.42
2022-08-12T19:49:55.104Z,25.26
2022-08-12T19:52:41.704Z,25.15
2022-08-12T19:55:28.732Z,25.02
2022-08-12T19:58:19.059Z,24.85
2022-08-12T20:01:05.202Z,24.84
2022-08-12T20:03:57.608Z,24.87
2022-08-12T20:06:51.321Z,24.86
2022-08-12T20:09:39.778Z,24.76
2022-08-12T20:12:31.862Z,24.71
2022-08-12T20:15:17.739Z,24.59
2022-08-12T20:18:03.047Z,24.54
2022-08-12T20:20:48.067Z,24.46
2022-08-12T20:23:37.085Z,24.36
2022-08-12T20:26:36.324Z,24.20
2022-08-12T20:29:22.659Z,24.20
2022-08-12T20:32:09.454Z,24.20
2022-08-12T20:34:54.751Z,24.16
2022-08-12T20:38:04.918Z,24.11
2022-08-12T20:40:47.964Z,24.03
2022-08-12T20:43:33.893Z,24.09
2022-08-12T20:46:20.163Z,24.14
2022-08-12T20:49:11.630Z,24.10
2022-08-12T20:52:01.633Z,24.22
2022-08-12T20:54:46.977Z,24.22
2022-08-12T20:57:38.292Z,24.15
2022-08-12T21:00:28.474Z,24.16
2022-08-12T21:03:14.000Z,24.20
2022-08-12T21:06:12.156Z,24.20
2022-08-12T21:08:58.307Z,24.18
2022-08-12T21:11:43.665Z,24.20
2022-08-12T21:14:39.979Z,24.16
2022-08-12T21:18:09.406Z,24.09
2022-08-12T21:20:41.883Z,24.09
2022-08-12T21:23:31.017Z,24.08
2022-08-12T21:26:22.128Z,24.07
2022-08-12T21:29:08.917Z,24.01
2022-08-12T21:32:47.062Z,23.98
2022-08-12T21:34:59.469Z,24.04
2022-08-12T21:37:53.356Z,24.00
2022-08-12T21:40:51.776Z,23.87
2022-08-12T21:43:44.936Z,23.81
2022-08-12T21:46:35.656Z,23.86
2022-08-12T21:49:53.641Z,23.79
2022-08-12T21:52:33.917Z,23.87
2022-08-12T21:55:20.517Z,23.74
2022-08-12T21:58:16.792Z,23.79
2022-08-12T22:01:03.680Z,23.81
2022-08-12T22:04:11.012Z,23.71
2022-08-12T22:06:59.256Z,23.68
2022-08-12T22:09:44.534Z,23.71
2022-08-12T22:12:30.909Z,23.66
2022-08-12T22:15:21.858Z,23.62
2022-08-12T22:18:07.354Z,23.57
2022-08-12T22:20:55.123Z,23.43
2022-08-12T22:23:51.837Z,23.47
2022-08-12T22:26:47.383Z,23.36
2022-08-12T22:29:32.661Z,23.39
2022-08-12T22:32:19.267Z,23.44
2022-08-12T22:35:08.029Z,23.35
2022-08-12T22:37:55.746Z,23.41
2022-08-12T22:40:53.640Z,23.30
2022-08-12T22:44:00.897Z,23.33
2022-08-12T22:46:52.530Z,23.35
2022-08-12T22:49:53.141Z,23.29
2022-08-12T22:52:42.207Z,23.14
2022-08-12T22:55:58.916Z,23.16
2022-08-12T22:58:33.392Z,23.14
2022-08-12T23:01:21.556Z,23.08
2022-08-12T23:04:28.407Z,23.10
2022-08-12T23:07:13.828Z,23.06
2022-08-12T23:09:58.757Z,23.01
2022-08-12T23:12:49.273Z,22.92
2022-08-12T23:15:34.404Z,22.94
2022-08-12T23:18:20.812Z,22.94
2022-08-12T23:21:06.840Z,22.89
2022-08-12T23:24:10.513Z,22.85
2022-08-12T23:26:57.188Z,22.79
2022-08-12T23:29:43.320Z,22.68
2022-08-12T23:32:36.051Z,22.65
2022-08-12T23:35:22.656Z,22.54
2022-08-12T23:38:07.932Z,22.40
2022-08-12T23:40:56.490Z,22.27
2022-08-12T23:43:46.719Z,22.10
2022-08-12T23:46:35.249Z,21.96
2022-08-12T23:49:55.379Z,21.87
2022-08-12T23:52:33.875Z,21.69
2022-08-12T23:55:25.184Z,21.56
2022-08-12T23:58:20.919Z,21.31
